»·PEaware :: N757PC KSAN-92CA

N757PC :: KSAN-92CA

FLIGHT INFORMATION

Flight Status: Arrived
Operator: Privately registered:
United States
More flights under this callsign
Pilot: Duane J. (9702)
Aircraft: PILATUS PC-12 EAGLE
(PC12)
More flights by this aircraft type
Origin: KSAN San Diego Intl-Lindbergh
United States
Destination: 92CA Westlake Farms
United States
More flights between these airports :: More routes between these airports
Route: PEBLE6 SXC LAX V23 GMN V137 AVE
File this flight plan on PilotEdge
Remarks:
Altitude:
(Current/Filed)
18,000ft
Speed:
(Current/Filed)
175kts
Departed: 06-Aug-16 02:36 AM
Arrived: 06-Aug-16 03:58 AM
Distance/Time
Traveled:
246nm/1:22
Distance/Time
To Go:
Arrived

Flight Plot

Page will automatically refresh every two minutes.


Map Options




Map Legend


Flown Route
Filed Route
Departure Airport
Arrival Airport
Navaid (VOR, NDB)
Fix

Horizontal Profiles

Position Reports

Time Latitude Longitude Heading Altitude Ground
Speed
06-Aug-16 02:27 32.733090 -117.201682 102 20ft 0kts
06-Aug-16 02:28 32.733090 -117.201680 102 20ft 0kts
06-Aug-16 02:29 32.733031 -117.201757 345 20ft 3kts
06-Aug-16 02:30 32.735303 -117.200924 126 20ft 10kts
06-Aug-16 02:31 32.733760 -117.194831 105 20ft 31kts
06-Aug-16 02:32 32.731394 -117.185117 108 20ft 31kts
06-Aug-16 02:33 32.731384 -117.180667 290 20ft 7kts
06-Aug-16 02:34 32.731490 -117.181008 284 20ft 0kts
06-Aug-16 02:35 32.736944 -117.205092 283 476ft 125kts
06-Aug-16 02:36 32.748213 -117.250483 285 2186ft 143kts
06-Aug-16 02:37 32.759070 -117.295480 284 4123ft 146kts
06-Aug-16 02:38 32.770652 -117.343197 286 5988ft 155kts
06-Aug-16 02:39 32.794658 -117.387748 301 7928ft 163kts
06-Aug-16 02:40 32.820803 -117.433252 301 9847ft 168kts
06-Aug-16 02:41 32.850370 -117.476317 327 11793ft 170kts
06-Aug-16 02:42 32.891412 -117.505179 327 13702ft 171kts
06-Aug-16 02:43 32.932753 -117.534301 326 15529ft 173kts
06-Aug-16 02:44 32.974286 -117.563559 325 17275ft 174kts
06-Aug-16 02:45 33.016345 -117.593191 324 18904ft 176kts
06-Aug-16 02:46 33.050348 -117.635294 305 20004ft 195kts
06-Aug-16 02:47 33.088482 -117.692703 305 19990ft 237kts
06-Aug-16 02:48 33.129886 -117.756164 305 19981ft 237kts
06-Aug-16 02:49 33.168937 -117.816243 305 19933ft 221kts
06-Aug-16 02:50 33.196207 -117.879503 290 19940ft 211kts
06-Aug-16 02:51 33.217812 -117.943991 290 19950ft 208kts
06-Aug-16 02:52 33.239108 -118.008063 290 19951ft 206kts
06-Aug-16 02:53 33.260272 -118.071863 290 19955ft 205kts
06-Aug-16 02:54 33.277787 -118.124760 290 19959ft 205kts
06-Aug-16 02:55 33.302316 -118.198990 290 19965ft 205kts
06-Aug-16 02:56 33.319824 -118.252080 290 19969ft 205kts
06-Aug-16 02:57 33.340720 -118.315561 290 19973ft 205kts
06-Aug-16 02:58 33.361660 -118.379308 290 19975ft 205kts
06-Aug-16 02:59 33.403281 -118.420307 355 19978ft 220kts
06-Aug-16 03:00 33.464609 -118.421439 352 19975ft 220kts
06-Aug-16 03:01 33.525820 -118.423166 353 19972ft 220kts
06-Aug-16 03:02 33.587330 -118.424569 353 19967ft 220kts
06-Aug-16 03:03 33.642101 -118.425768 353 19961ft 220kts
06-Aug-16 03:04 33.703491 -118.427100 353 19955ft 221kts
06-Aug-16 03:05 33.758185 -118.428286 353 19951ft 221kts
06-Aug-16 03:06 33.819793 -118.429627 353 19946ft 221kts
06-Aug-16 03:07 33.881347 -118.430967 353 19946ft 220kts
06-Aug-16 03:08 33.942039 -118.435790 332 19938ft 213kts
06-Aug-16 03:09 33.996592 -118.464220 334 19944ft 214kts
06-Aug-16 03:10 34.052224 -118.490490 333 19946ft 214kts
06-Aug-16 03:11 34.107538 -118.517396 332 19945ft 214kts
06-Aug-16 03:12 34.163091 -118.544588 332 19946ft 215kts
06-Aug-16 03:13 34.218641 -118.571840 332 19946ft 215kts
06-Aug-16 03:14 34.274154 -118.599142 332 19951ft 215kts
06-Aug-16 03:15 34.323807 -118.623580 332 19957ft 215kts
06-Aug-16 03:16 34.379353 -118.650940 332 19968ft 215kts
06-Aug-16 03:17 34.434893 -118.678340 332 19983ft 215kts
06-Aug-16 03:18 34.490250 -118.705690 332 20001ft 215kts
06-Aug-16 03:19 34.545775 -118.733163 332 20028ft 215kts
06-Aug-16 03:20 34.601291 -118.760681 332 20051ft 215kts
06-Aug-16 03:21 34.656912 -118.788290 332 20068ft 215kts
06-Aug-16 03:22 34.712480 -118.815914 332 20076ft 216kts
06-Aug-16 03:23 34.768424 -118.843764 332 20078ft 217kts
06-Aug-16 03:24 34.818583 -118.880698 305 20076ft 209kts
06-Aug-16 03:25 34.858326 -118.932787 309 20062ft 210kts
06-Aug-16 03:26 34.898533 -118.985073 308 20052ft 211kts
06-Aug-16 03:27 34.938705 -119.037611 308 20039ft 211kts
06-Aug-16 03:28 34.974883 -119.085068 308 20008ft 212kts
06-Aug-16 03:29 35.015054 -119.137789 308 19991ft 212kts
06-Aug-16 03:30 35.055289 -119.190699 308 19976ft 212kts
06-Aug-16 03:31 35.095436 -119.243581 308 19962ft 211kts
06-Aug-16 03:32 35.135504 -119.296445 307 19953ft 211kts
06-Aug-16 03:33 35.171068 -119.343440 307 19947ft 211kts
06-Aug-16 03:34 35.211055 -119.396363 307 19943ft 211kts
06-Aug-16 03:35 35.250981 -119.449293 307 19947ft 211kts
06-Aug-16 03:36 35.290929 -119.502347 307 19946ft 211kts
06-Aug-16 03:37 35.330729 -119.555277 307 19945ft 211kts
06-Aug-16 03:38 35.370670 -119.608478 307 19943ft 211kts
06-Aug-16 03:39 35.410624 -119.661779 307 19940ft 211kts
06-Aug-16 03:40 35.449485 -119.713623 307 18750ft 206kts
06-Aug-16 03:41 35.488306 -119.765567 308 17355ft 207kts
06-Aug-16 03:42 35.527350 -119.817890 309 15955ft 207kts
06-Aug-16 03:43 35.566219 -119.870064 309 14554ft 206kts
06-Aug-16 03:44 35.604822 -119.921964 310 13153ft 204kts
06-Aug-16 03:45 35.644572 -119.971222 332 11753ft 204kts
06-Aug-16 03:46 35.700568 -119.967875 5 10356ft 202kts
06-Aug-16 03:47 35.756468 -119.957801 7 8963ft 204kts
06-Aug-16 03:48 35.812196 -119.947277 7 7554ft 199kts
06-Aug-16 03:49 35.866432 -119.936978 8 6157ft 195kts
06-Aug-16 03:50 35.919483 -119.926877 7 4778ft 187kts
06-Aug-16 03:51 35.961164 -119.918950 7 3639ft 114kts
06-Aug-16 03:52 35.994576 -119.912646 6 2558ft 127kts
06-Aug-16 03:53 36.027932 -119.896640 25 1549ft 122kts
06-Aug-16 03:54 36.057472 -119.887862 9 1502ft 107kts
06-Aug-16 03:55 36.086470 -119.879529 5 1194ft 88kts
06-Aug-16 03:56 36.110702 -119.886868 333 238ft 77kts
06-Aug-16 03:57 36.115125 -119.889349 334 197ft 0kts
06-Aug-16 03:58 36.115125 -119.889349 334 197ft 0kts
06-Aug-16 03:59 36.124183 -119.901471 269 683ft 115kts
06-Aug-16 04:00 36.132297 -119.944276 274 1976ft 140kts
06-Aug-16 04:01 36.158372 -119.971476 2 1161ft 127kts
06-Aug-16 04:02 36.145098 -119.985764 181 634ft 97kts
06-Aug-16 04:03 36.128790 -119.985651 175 267ft 13kts
06-Aug-16 04:04 36.128456 -119.985700 5 267ft 0kts
06-Aug-16 04:05 36.128456 -119.985700 5 267ft 0kts
06-Aug-16 04:06 36.128456 -119.985700 5 267ft 0kts
06-Aug-16 04:07 36.128456 -119.985700 5 267ft 0kts
06-Aug-16 04:08 36.128456 -119.985700 5 267ft 0kts

Navigation Log

Ident Type
Flight plan parsing failed, navigation log unavailable